Time;durP1;ratioP1;P1;durP2;ratioP2;P2;SDS_P1;SDS_P2;PMS_P1;PMS_P2;Temp;Humidity;BMP_temperature;BMP_pressure;BME280_temperature;BME280_humidity;BME280_pressure;Samples;Min_cycle;Max_cycle;Signal;HPM_P1;HPM_P2
2021/07/10 00:02:00;;;;;;;5.10;3.30;;;;;;;;;;5014179;28;20222;-86
2021/07/10 00:04:27;;;;;;;4.38;3.00;;;;;;;;;;5029135;28;20756;-87
2021/07/10 00:06:53;;;;;;;3.90;2.83;;;;;;;;;;5012739;28;20648;-86
2021/07/10 00:09:20;;;;;;;4.43;3.33;;;;;;;;;;5009578;28;20180;-87
2021/07/10 00:11:46;;;;;;;6.72;3.90;;;;;;;;;;5011516;28;20259;-88
2021/07/10 00:14:12;;;;;;;4.35;2.58;;;;;;;;;;5028765;28;20258;-87
2021/07/10 00:16:38;;;;;;;2.47;2.28;;;;;;;;;;5029134;28;20226;-87
2021/07/10 00:19:04;;;;;;;4.40;3.33;;;;;;;;;;5029143;28;20182;-87
2021/07/10 00:21:30;;;;;;;3.58;3.22;;;;;;;;;;5025067;28;20452;-87
2021/07/10 00:23:56;;;;;;;4.33;3.43;;;;;;;;;;5025729;28;20183;-87
2021/07/10 00:26:22;;;;;;;5.00;3.35;;;;;;;;;;5029531;28;20441;-87
2021/07/10 00:28:48;;;;;;;5.00;3.63;;;;;;;;;;5029262;28;20203;-86
2021/07/10 00:31:14;;;;;;;4.47;3.20;;;;;;;;;;5013443;28;20206;-87
2021/07/10 00:33:44;;;;;;;4.57;3.63;;;;;;;;;;5025603;28;20188;-87
2021/07/10 00:36:10;;;;;;;4.60;3.55;;;;;;;;;;5024283;28;20409;-86
2021/07/10 00:38:46;;;;;;;4.78;3.33;;;;;;;;;;5028523;28;20167;-87
2021/07/10 00:41:13;;;;;;;4.47;3.55;;;;;;;;;;5028096;28;20249;-87
2021/07/10 00:43:39;;;;;;;4.05;3.65;;;;;;;;;;5027124;28;20195;-88
2021/07/10 00:46:07;;;;;;;4.13;3.22;;;;;;;;;;5027941;28;20186;-87
2021/07/10 00:48:33;;;;;;;4.32;3.92;;;;;;;;;;5022981;28;20189;-87
2021/07/10 00:51:01;;;;;;;4.68;3.25;;;;;;;;;;5024600;28;20202;-86
2021/07/10 00:53:27;;;;;;;8.07;3.28;;;;;;;;;;5027947;28;20242;-87
2021/07/10 00:55:53;;;;;;;3.80;3.40;;;;;;;;;;5027605;28;20191;-87
2021/07/10 00:58:19;;;;;;;4.55;4.05;;;;;;;;;;5027121;28;20182;-88
2021/07/10 01:00:46;;;;;;;8.05;4.40;;;;;;;;;;5025905;28;20179;-88
2021/07/10 01:03:14;;;;;;;3.78;3.45;;;;;;;;;;5022164;28;20185;-86
2021/07/10 01:05:40;;;;;;;7.45;3.92;;;;;;;;;;5008275;28;20405;-88
2021/07/10 01:08:06;;;;;;;17.38;4.55;;;;;;;;;;5026249;28;20190;-86
2021/07/10 01:10:32;;;;;;;4.75;3.20;;;;;;;;;;5028137;28;20203;-88
2021/07/10 01:12:59;;;;;;;4.20;3.13;;;;;;;;;;5026043;28;20261;-87
2021/07/10 01:15:26;;;;;;;7.32;3.85;;;;;;;;;;5022401;28;20174;-87
2021/07/10 01:17:56;;;;;;;4.40;3.60;;;;;;;;;;5008330;28;20206;-88
2021/07/10 01:20:22;;;;;;;3.50;3.20;;;;;;;;;;5027367;28;20202;-87
2021/07/10 01:22:49;;;;;;;4.75;3.15;;;;;;;;;;5027794;28;20195;-87
2021/07/10 01:25:16;;;;;;;3.97;3.50;;;;;;;;;;5027290;28;20182;-87
2021/07/10 01:27:43;;;;;;;3.78;3.10;;;;;;;;;;5024810;28;20183;-88
2021/07/10 01:30:11;;;;;;;5.15;4.35;;;;;;;;;;5023244;28;20202;-88
2021/07/10 01:33:01;;;;;;;5.63;4.15;;;;;;;;;;5040204;28;20174;-88
2021/07/10 01:35:26;;;;;;;5.25;3.95;;;;;;;;;;5023286;28;20182;-87
2021/07/10 01:37:52;;;;;;;6.30;3.75;;;;;;;;;;5031330;28;20209;-86
2021/07/10 01:40:19;;;;;;;6.00;3.92;;;;;;;;;;5027807;28;20197;-88
2021/07/10 01:42:49;;;;;;;7.05;3.80;;;;;;;;;;5025866;28;20194;-89
2021/07/10 01:45:20;;;;;;;4.03;3.63;;;;;;;;;;5021192;28;20225;-86
2021/07/10 01:47:47;;;;;;;4.50;3.60;;;;;;;;;;5024667;28;20179;-86
2021/07/10 01:50:13;;;;;;;3.45;3.15;;;;;;;;;;5028136;28;20210;-86
2021/07/10 01:52:40;;;;;;;3.95;3.53;;;;;;;;;;5026800;28;20214;-87
2021/07/10 01:55:08;;;;;;;4.00;3.00;;;;;;;;;;5027567;28;20277;-86
2021/07/10 01:57:35;;;;;;;4.05;3.60;;;;;;;;;;5023037;28;20208;-88
2021/07/10 02:00:01;;;;;;;5.05;4.07;;;;;;;;;;5022353;28;20278;-87
2021/07/10 02:02:27;;;;;;;3.97;3.22;;;;;;;;;;5027195;28;20203;-87
2021/07/10 02:04:53;;;;;;;4.25;3.85;;;;;;;;;;5029223;28;20187;-88
2021/07/10 02:07:20;;;;;;;4.65;3.70;;;;;;;;;;5030617;28;20186;-88
2021/07/10 02:09:46;;;;;;;3.80;3.50;;;;;;;;;;5027886;28;20189;-88
2021/07/10 02:12:13;;;;;;;4.47;3.50;;;;;;;;;;5025970;28;20198;-87
2021/07/10 02:14:39;;;;;;;6.15;4.32;;;;;;;;;;5010298;28;20184;-87
2021/07/10 02:17:05;;;;;;;3.20;2.90;;;;;;;;;;5031064;28;20286;-88
2021/07/10 02:19:31;;;;;;;4.03;3.65;;;;;;;;;;5030135;28;20191;-89
2021/07/10 02:21:58;;;;;;;4.50;3.60;;;;;;;;;;5030690;28;20640;-88
2021/07/10 03:24:08;;;;;;;3.97;3.67;;;;;;;;;;4881502;29;20195;-87
2021/07/10 03:27:37;;;;;;;;;;;;;;;;;;;;;
2021/07/10 03:30:18;;;;;;;4.47;4.00;;;;;;;;;;4892514;29;20187;-89
2021/07/10 03:36:20;;;;;;;;;;;;;;;;;;;;;
2021/07/10 04:29:02;;;;;;;3.90;3.42;;;;;;;;;;4945149;29;20203;-87
2021/07/10 04:39:17;;;;;;;;;;;;;;;;;;;;;
2021/07/10 04:41:58;;;;;;;4.78;3.47;;;;;;;;;;4949350;29;20184;-90
2021/07/10 04:45:07;;;;;;;;;;;;;;;;;;;;;
2021/07/10 05:01:16;;;;;;;5.93;3.50;;;;;;;;;;4907307;29;20217;-88
2021/07/10 05:16:13;;;;;;;3.45;3.15;;;;;;;;;;4801039;29;20183;-88
2021/07/10 05:37:49;;;;;;;3.10;2.60;;;;;;;;;;5058589;23;20225;-86
2021/07/10 05:40:15;;;;;;;3.53;2.60;;;;;;;;;;5031783;28;20575;-86
2021/07/10 05:42:41;;;;;;;5.75;2.80;;;;;;;;;;5065430;28;20731;-86
2021/07/10 05:45:08;;;;;;;3.75;2.88;;;;;;;;;;5065445;28;20197;-86
2021/07/10 05:47:34;;;;;;;4.65;3.40;;;;;;;;;;5064932;28;20189;-87
2021/07/10 05:50:00;;;;;;;4.07;3.50;;;;;;;;;;5049385;28;20181;-87
2021/07/10 05:52:26;;;;;;;3.80;3.40;;;;;;;;;;5064582;28;20189;-86
2021/07/10 05:54:52;;;;;;;4.03;2.60;;;;;;;;;;5050152;28;20169;-87
2021/07/10 05:57:19;;;;;;;2.50;2.30;;;;;;;;;;5064835;28;20958;-86
2021/07/10 05:59:45;;;;;;;3.90;3.10;;;;;;;;;;5050999;28;20451;-86
2021/07/10 06:02:11;;;;;;;3.50;2.97;;;;;;;;;;5027770;28;20192;-87
2021/07/10 06:04:37;;;;;;;4.05;2.70;;;;;;;;;;5027344;28;20189;-87
2021/07/10 06:07:03;;;;;;;4.10;2.63;;;;;;;;;;5048765;28;20201;-87
2021/07/10 06:09:29;;;;;;;3.47;2.78;;;;;;;;;;5065424;28;20194;-86
2021/07/10 06:11:56;;;;;;;2.83;2.63;;;;;;;;;;5066200;28;20202;-86
2021/07/10 06:14:22;;;;;;;4.30;3.25;;;;;;;;;;5026962;28;20685;-85
2021/07/10 06:16:48;;;;;;;3.40;3.10;;;;;;;;;;5027351;28;20185;-86
2021/07/10 06:19:14;;;;;;;2.88;2.67;;;;;;;;;;5032390;28;20454;-86
2021/07/10 06:21:40;;;;;;;2.97;2.40;;;;;;;;;;5049049;28;20186;-86
2021/07/10 06:24:06;;;;;;;3.00;2.60;;;;;;;;;;5049875;28;20424;-86
2021/07/10 06:26:32;;;;;;;4.60;2.42;;;;;;;;;;5050470;28;20478;-86
2021/07/10 06:29:00;;;;;;;3.47;2.10;;;;;;;;;;5048794;28;20616;-86
2021/07/10 06:31:26;;;;;;;4.55;2.53;;;;;;;;;;5027189;28;20201;-85
2021/07/10 06:33:52;;;;;;;3.57;2.40;;;;;;;;;;5050031;28;20189;-86
2021/07/10 06:36:19;;;;;;;2.90;2.40;;;;;;;;;;5063894;28;20500;-86
2021/07/10 06:38:45;;;;;;;3.20;2.30;;;;;;;;;;5065572;28;20425;-86
2021/07/10 06:41:11;;;;;;;5.72;2.92;;;;;;;;;;5064413;28;20185;-86
2021/07/10 06:43:37;;;;;;;2.70;2.50;;;;;;;;;;5022300;28;20194;-86
2021/07/10 06:46:07;;;;;;;3.85;2.45;;;;;;;;;;5037453;28;20176;-86
2021/07/10 06:48:33;;;;;;;3.08;2.80;;;;;;;;;;5049014;28;20197;-85
2021/07/10 06:50:59;;;;;;;4.60;2.77;;;;;;;;;;5058106;28;20206;-87
2021/07/10 06:53:25;;;;;;;2.93;2.60;;;;;;;;;;5061411;28;20436;-86
2021/07/10 06:55:52;;;;;;;3.80;2.90;;;;;;;;;;5021794;28;20416;-86
2021/07/10 06:58:19;;;;;;;4.75;3.00;;;;;;;;;;5036081;28;20733;-87
2021/07/10 07:00:46;;;;;;;3.03;2.40;;;;;;;;;;5046083;28;20257;-86
2021/07/10 07:03:12;;;;;;;4.30;2.40;;;;;;;;;;5012435;28;20170;-86
2021/07/10 07:05:38;;;;;;;3.85;2.40;;;;;;;;;;5061737;28;20174;-86
2021/07/10 07:08:04;;;;;;;5.35;2.80;;;;;;;;;;5045241;28;20199;-86
2021/07/10 07:10:30;;;;;;;3.15;2.38;;;;;;;;;;5045769;28;20739;-86
2021/07/10 07:12:56;;;;;;;2.47;2.22;;;;;;;;;;5027849;28;20210;-86
2021/07/10 07:15:22;;;;;;;2.63;2.30;;;;;;;;;;5060767;28;20228;-86
2021/07/10 07:17:48;;;;;;;2.30;2.10;;;;;;;;;;5046662;28;20393;-86
2021/07/10 07:20:18;;;;;;;3.75;2.28;;;;;;;;;;5044611;28;20324;-85
2021/07/10 07:22:47;;;;;;;2.13;2.00;;;;;;;;;;5045535;28;20266;-85
2021/07/10 07:25:14;;;;;;;2.95;2.53;;;;;;;;;;5045271;28;20214;-85
2021/07/10 07:27:41;;;;;;;3.92;2.50;;;;;;;;;;5060726;28;20187;-86
2021/07/10 07:30:08;;;;;;;2.40;2.20;;;;;;;;;;5045068;28;20198;-85
2021/07/10 07:32:34;;;;;;;2.50;1.98;;;;;;;;;;5061139;28;20184;-86
2021/07/10 07:35:00;;;;;;;2.05;1.85;;;;;;;;;;5022882;28;20183;-86
2021/07/10 07:37:26;;;;;;;2.05;1.77;;;;;;;;;;5027336;28;20223;-86
2021/07/10 07:39:52;;;;;;;4.25;2.58;;;;;;;;;;5060659;28;20186;-85
2021/07/10 07:42:19;;;;;;;2.47;2.00;;;;;;;;;;5045452;28;20171;-85
2021/07/10 07:44:45;;;;;;;3.20;2.45;;;;;;;;;;5045856;28;20415;-86
2021/07/10 07:47:12;;;;;;;3.30;2.00;;;;;;;;;;5022497;28;20193;-86
2021/07/10 07:49:39;;;;;;;4.40;2.30;;;;;;;;;;5011374;28;20671;-86
2021/07/10 07:52:05;;;;;;;2.50;2.30;;;;;;;;;;5039984;28;20207;-86
2021/07/10 07:54:32;;;;;;;3.70;2.20;;;;;;;;;;5029404;28;20257;-85
2021/07/10 07:56:58;;;;;;;2.63;2.40;;;;;;;;;;5061012;28;20194;-87
2021/07/10 07:59:24;;;;;;;1.90;1.80;;;;;;;;;;5045182;28;20271;-85
2021/07/10 08:01:50;;;;;;;3.77;2.13;;;;;;;;;;5019908;28;20219;-85
2021/07/10 08:04:16;;;;;;;4.03;2.40;;;;;;;;;;5018007;28;20417;-86
2021/07/10 08:06:42;;;;;;;2.47;2.17;;;;;;;;;;5027307;28;20571;-87
2021/07/10 08:09:08;;;;;;;2.80;2.00;;;;;;;;;;5044679;28;20243;-83
2021/07/10 08:11:34;;;;;;;5.55;1.70;;;;;;;;;;5060126;28;20470;-85
2021/07/10 08:14:00;;;;;;;2.88;1.90;;;;;;;;;;5058410;28;20207;-83
2021/07/10 08:16:26;;;;;;;2.22;2.00;;;;;;;;;;5043682;28;20532;-84
2021/07/10 08:18:54;;;;;;;2.30;2.10;;;;;;;;;;5026527;28;20194;-84
2021/07/10 08:21:20;;;;;;;2.15;1.98;;;;;;;;;;5059449;28;20786;-84
2021/07/10 08:23:46;;;;;;;1.75;1.65;;;;;;;;;;5060331;28;20192;-85
2021/07/10 08:26:13;;;;;;;2.30;2.00;;;;;;;;;;5043904;28;20184;-84
2021/07/10 08:28:39;;;;;;;2.72;2.15;;;;;;;;;;5034962;28;20421;-85
2021/07/10 08:31:05;;;;;;;2.00;1.50;;;;;;;;;;5043165;28;20209;-84
2021/07/10 08:33:31;;;;;;;1.93;1.73;;;;;;;;;;5011012;28;20185;-84
2021/07/10 08:35:58;;;;;;;2.10;1.90;;;;;;;;;;5045097;28;20429;-85
2021/07/10 08:38:24;;;;;;;2.13;1.90;;;;;;;;;;5014881;28;20251;-85
2021/07/10 08:40:51;;;;;;;1.77;1.58;;;;;;;;;;5014784;28;20687;-86
2021/07/10 08:43:17;;;;;;;1.70;1.60;;;;;;;;;;5011901;28;20192;-82
2021/07/10 08:45:46;;;;;;;2.67;1.60;;;;;;;;;;5043385;28;20196;-86
2021/07/10 08:48:12;;;;;;;2.00;1.90;;;;;;;;;;5058746;28;20235;-85
2021/07/10 08:50:39;;;;;;;1.95;1.73;;;;;;;;;;5036300;28;20259;-86
2021/07/10 08:53:05;;;;;;;2.00;1.73;;;;;;;;;;5044014;28;20189;-85
2021/07/10 08:55:31;;;;;;;2.70;2.05;;;;;;;;;;5022058;28;20176;-84
2021/07/10 08:57:58;;;;;;;2.85;2.17;;;;;;;;;;5013275;28;20180;-84
2021/07/10 09:00:29;;;;;;;3.85;1.63;;;;;;;;;;5058192;28;20193;-85
2021/07/10 09:02:56;;;;;;;2.58;1.95;;;;;;;;;;5059861;28;20246;-84
2021/07/10 09:05:23;;;;;;;2.50;1.90;;;;;;;;;;5042869;28;20203;-84
2021/07/10 09:08:07;;;;;;;1.88;1.77;;;;;;;;;;5042496;28;20252;-82
2021/07/10 09:10:37;;;;;;;2.58;2.00;;;;;;;;;;5043174;28;20211;-85
2021/07/10 09:13:03;;;;;;;1.83;1.50;;;;;;;;;;5024770;28;20177;-83
2021/07/10 09:15:29;;;;;;;1.83;1.73;;;;;;;;;;5008668;28;20203;-85
2021/07/10 09:17:55;;;;;;;1.87;1.70;;;;;;;;;;5059786;28;20180;-85
2021/07/10 09:20:22;;;;;;;3.00;2.08;;;;;;;;;;5015095;28;20439;-85
2021/07/10 09:22:49;;;;;;;1.70;1.60;;;;;;;;;;5037721;28;20218;-84
2021/07/10 09:25:22;;;;;;;3.15;1.90;;;;;;;;;;5047565;28;20195;-85
2021/07/10 09:27:49;;;;;;;1.58;1.48;;;;;;;;;;5058168;28;20188;-85
2021/07/10 09:30:16;;;;;;;1.52;1.42;;;;;;;;;;5058700;28;20196;-82
2021/07/10 09:32:41;;;;;;;2.25;1.58;;;;;;;;;;5059668;28;20211;-85
2021/07/10 09:35:10;;;;;;;1.60;1.50;;;;;;;;;;5016906;28;20226;-85
2021/07/10 09:37:38;;;;;;;1.90;1.63;;;;;;;;;;5013887;28;20461;-85
2021/07/10 09:40:11;;;;;;;1.67;1.25;;;;;;;;;;5025721;28;20172;-85
2021/07/10 09:42:44;;;;;;;1.45;1.30;;;;;;;;;;5026527;28;20187;-83
2021/07/10 09:45:23;;;;;;;2.40;1.88;;;;;;;;;;5042574;28;20166;-84
2021/07/10 09:47:49;;;;;;;1.92;1.50;;;;;;;;;;5043765;28;20255;-86
2021/07/10 09:50:24;;;;;;;2.00;1.90;;;;;;;;;;5058179;28;20238;-85
2021/07/10 09:52:50;;;;;;;1.60;1.50;;;;;;;;;;5019866;28;20184;-86
2021/07/10 09:55:17;;;;;;;2.27;1.80;;;;;;;;;;5015648;28;20191;-85
2021/07/10 09:57:44;;;;;;;1.70;1.60;;;;;;;;;;5042451;28;20435;-86
2021/07/10 10:00:14;;;;;;;1.83;1.63;;;;;;;;;;5059360;28;20181;-86
2021/07/10 10:02:56;;;;;;;1.45;1.35;;;;;;;;;;5056051;28;20167;-86
2021/07/10 10:05:23;;;;;;;1.73;1.63;;;;;;;;;;5041006;28;20220;-85
2021/07/10 10:07:50;;;;;;;2.05;1.50;;;;;;;;;;5042866;28;20211;-86
2021/07/10 10:10:25;;;;;;;1.65;1.55;;;;;;;;;;5043183;28;20231;-86
2021/07/10 10:13:09;;;;;;;2.10;1.80;;;;;;;;;;5025372;28;20622;-84
2021/07/10 10:15:35;;;;;;;1.60;1.45;;;;;;;;;;5027586;28;20187;-84
2021/07/10 10:18:01;;;;;;;1.87;1.50;;;;;;;;;;5043716;28;20198;-85
2021/07/10 10:20:28;;;;;;;2.90;2.00;;;;;;;;;;5020937;28;20425;-85
2021/07/10 10:22:54;;;;;;;2.38;2.17;;;;;;;;;;5018888;28;20191;-85
2021/07/10 10:25:20;;;;;;;1.70;1.45;;;;;;;;;;5035187;28;20223;-85
2021/07/10 10:27:48;;;;;;;1.83;1.60;;;;;;;;;;5027799;28;20187;-86
2021/07/10 10:30:15;;;;;;;1.73;1.45;;;;;;;;;;5045793;28;20196;-84
2021/07/10 10:32:42;;;;;;;1.80;1.70;;;;;;;;;;5062885;28;20326;-85
2021/07/10 10:35:09;;;;;;;2.08;1.70;;;;;;;;;;5029131;28;20183;-84
2021/07/10 10:37:37;;;;;;;1.63;1.52;;;;;;;;;;5024523;28;20324;-85
2021/07/10 10:40:05;;;;;;;2.47;1.88;;;;;;;;;;5012183;28;20204;-85
2021/07/10 10:42:31;;;;;;;4.95;1.92;;;;;;;;;;5045164;28;20196;-83
2021/07/10 10:44:59;;;;;;;1.80;1.57;;;;;;;;;;5062630;28;20543;-85
2021/07/10 10:47:25;;;;;;;1.77;1.67;;;;;;;;;;5024127;28;20440;-84
2021/07/10 10:49:55;;;;;;;3.03;1.83;;;;;;;;;;5021918;28;20221;-85
2021/07/10 10:52:23;;;;;;;2.05;1.67;;;;;;;;;;5019121;28;20219;-85
2021/07/10 10:54:51;;;;;;;2.08;1.55;;;;;;;;;;5061830;28;20186;-84
2021/07/10 10:57:17;;;;;;;2.65;1.63;;;;;;;;;;5045820;28;20710;-84
2021/07/10 10:59:45;;;;;;;1.63;1.52;;;;;;;;;;5059377;28;20211;-85
2021/07/10 11:02:23;;;;;;;2.85;2.00;;;;;;;;;;5023517;28;20276;-84
2021/07/10 11:04:55;;;;;;;1.67;1.58;;;;;;;;;;5045257;28;20208;-85
2021/07/10 11:07:29;;;;;;;2.28;1.95;;;;;;;;;;5027838;28;20176;-84
2021/07/10 11:10:04;;;;;;;1.80;1.70;;;;;;;;;;5060628;28;20261;-84
2021/07/10 11:12:49;;;;;;;4.45;2.22;;;;;;;;;;5060955;28;20240;-85
2021/07/10 11:17:53;;;;;;;6.35;1.60;;;;;;;;;;5045418;28;20196;-86
2021/07/10 11:20:38;;;;;;;2.13;1.67;;;;;;;;;;5017403;28;20195;-84
2021/07/10 11:23:04;;;;;;;1.75;1.60;;;;;;;;;;5012038;28;20203;-83
2021/07/10 11:25:45;;;;;;;1.92;1.63;;;;;;;;;;5017587;28;20191;-84
2021/07/10 11:28:19;;;;;;;1.98;1.63;;;;;;;;;;5027175;28;20624;-84
2021/07/10 11:30:45;;;;;;;2.75;2.17;;;;;;;;;;5037559;28;20206;-86
2021/07/10 11:33:12;;;;;;;2.85;2.55;;;;;;;;;;5045322;28;20179;-83
2021/07/10 11:35:39;;;;;;;3.20;2.00;;;;;;;;;;5060937;28;20194;-85
2021/07/10 11:38:05;;;;;;;2.65;2.25;;;;;;;;;;5059475;28;20197;-85
2021/07/10 11:40:41;;;;;;;1.67;1.58;;;;;;;;;;5022720;28;20187;-83
2021/07/10 11:43:08;;;;;;;3.05;2.00;;;;;;;;;;5015972;28;20607;-83
2021/07/10 11:45:36;;;;;;;2.42;1.85;;;;;;;;;;5044864;28;20192;-84
2021/07/10 11:48:22;;;;;;;4.18;2.47;;;;;;;;;;5046518;28;20432;-85
2021/07/10 11:50:55;;;;;;;2.63;1.77;;;;;;;;;;5043788;28;20217;-83
2021/07/10 11:53:21;;;;;;;2.15;1.95;;;;;;;;;;5016950;28;20252;-87
2021/07/10 11:55:47;;;;;;;2.05;1.75;;;;;;;;;;5038577;28;20189;-81
2021/07/10 11:58:15;;;;;;;2.17;1.70;;;;;;;;;;5059559;28;20197;-84
2021/07/10 12:00:41;;;;;;;1.80;1.70;;;;;;;;;;5026146;28;20471;-85
2021/07/10 12:03:16;;;;;;;2.33;1.63;;;;;;;;;;5060566;28;20176;-84
2021/07/10 12:05:42;;;;;;;2.30;2.10;;;;;;;;;;5014153;28;20172;-84
2021/07/10 12:08:08;;;;;;;6.47;1.90;;;;;;;;;;5040738;28;20188;-86
2021/07/10 12:10:35;;;;;;;2.10;1.90;;;;;;;;;;5021853;28;20208;-86
2021/07/10 12:13:02;;;;;;;2.08;1.88;;;;;;;;;;5044731;28;20240;-84
2021/07/10 12:15:30;;;;;;;1.75;1.48;;;;;;;;;;5058851;28;20227;-85
2021/07/10 12:17:57;;;;;;;3.50;1.75;;;;;;;;;;5060697;28;20239;-85
2021/07/10 12:20:25;;;;;;;2.65;1.67;;;;;;;;;;5043948;28;20553;-85
2021/07/10 12:22:56;;;;;;;1.98;1.88;;;;;;;;;;5021536;28;20274;-85
2021/07/10 12:25:23;;;;;;;2.10;2.00;;;;;;;;;;5044124;28;20470;-84
2021/07/10 12:27:57;;;;;;;1.92;1.50;;;;;;;;;;5026095;28;20219;-85
2021/07/10 12:30:39;;;;;;;1.83;1.60;;;;;;;;;;5059460;28;20192;-84
2021/07/10 12:33:25;;;;;;;1.43;1.30;;;;;;;;;;5041444;28;20897;-84
2021/07/10 12:36:01;;;;;;;1.70;1.23;;;;;;;;;;5060262;28;20439;-85
2021/07/10 12:38:27;;;;;;;2.53;1.60;;;;;;;;;;5058231;28;20501;-88
2021/07/10 12:40:53;;;;;;;1.90;1.70;;;;;;;;;;5016160;28;20444;-87
2021/07/10 12:43:25;;;;;;;1.50;1.40;;;;;;;;;;5016363;28;20925;-87
2021/07/10 12:45:59;;;;;;;1.85;1.70;;;;;;;;;;5025918;28;20440;-88
2021/07/10 12:48:25;;;;;;;1.60;1.50;;;;;;;;;;5058502;28;20224;-87
2021/07/10 12:50:51;;;;;;;3.43;1.83;;;;;;;;;;5044892;28;20531;-86
2021/07/10 12:53:25;;;;;;;2.40;1.60;;;;;;;;;;5043687;28;20436;-88
2021/07/10 12:56:11;;;;;;;1.63;1.27;;;;;;;;;;5019818;28;20422;-89
2021/07/10 12:58:40;;;;;;;2.53;1.60;;;;;;;;;;5014626;28;20420;-85
2021/07/10 13:01:07;;;;;;;2.85;1.55;;;;;;;;;;5032843;28;20196;-88
2021/07/10 13:03:33;;;;;;;5.25;2.00;;;;;;;;;;5026402;28;20205;-90
2021/07/10 13:06:02;;;;;;;3.23;2.00;;;;;;;;;;5060026;28;20220;-85
2021/07/10 13:08:29;;;;;;;2.13;1.67;;;;;;;;;;5014263;28;20416;-90
2021/07/10 13:11:01;;;;;;;1.87;1.70;;;;;;;;;;5039421;28;20529;-90
2021/07/10 13:13:28;;;;;;;2.20;1.70;;;;;;;;;;5043988;28;20403;-90
2021/07/10 13:15:55;;;;;;;1.43;1.33;;;;;;;;;;5025279;28;20399;-90
2021/07/10 13:18:22;;;;;;;1.60;1.43;;;;;;;;;;5043698;28;20932;-86
2021/07/10 13:20:53;;;;;;;1.50;1.40;;;;;;;;;;5044801;28;20423;-87
2021/07/10 13:23:26;;;;;;;1.53;1.43;;;;;;;;;;5015755;28;20469;-86
2021/07/10 13:25:53;;;;;;;2.30;2.10;;;;;;;;;;5038302;28;20415;-87
2021/07/10 13:28:23;;;;;;;2.00;1.90;;;;;;;;;;5058941;28;20481;-87
2021/07/10 13:30:50;;;;;;;2.03;1.50;;;;;;;;;;5042513;28;20466;-85
2021/07/10 13:33:27;;;;;;;2.53;1.87;;;;;;;;;;5043425;28;20424;-85
2021/07/10 13:36:03;;;;;;;2.20;2.10;;;;;;;;;;5057829;28;20536;-86
2021/07/10 13:38:32;;;;;;;2.60;1.67;;;;;;;;;;5043535;28;20586;-87
2021/07/10 13:41:11;;;;;;;1.63;1.40;;;;;;;;;;5058366;28;20407;-90
2021/07/10 13:43:37;;;;;;;1.70;1.60;;;;;;;;;;5021039;28;20411;-87
2021/07/10 13:46:07;;;;;;;4.70;2.00;;;;;;;;;;5022063;28;20440;-88
2021/07/10 13:48:33;;;;;;;1.60;1.50;;;;;;;;;;5027774;28;20486;-87
2021/07/10 13:51:04;;;;;;;4.10;3.27;;;;;;;;;;5043616;28;20467;-86
2021/07/10 13:53:30;;;;;;;2.63;1.63;;;;;;;;;;5044166;28;20395;-87
2021/07/10 13:55:56;;;;;;;1.87;1.67;;;;;;;;;;5020941;28;20475;-86
2021/07/10 13:58:28;;;;;;;3.73;1.87;;;;;;;;;;5043259;28;20436;-84
2021/07/10 14:00:55;;;;;;;2.07;1.80;;;;;;;;;;5028487;28;20419;-89
2021/07/10 14:03:21;;;;;;;11.23;6.30;;;;;;;;;;5062682;28;20417;-87
2021/07/10 14:05:48;;;;;;;2.50;2.30;;;;;;;;;;5062855;28;20393;-86
2021/07/10 14:08:18;;;;;;;2.00;1.60;;;;;;;;;;5046706;28;20447;-86
2021/07/10 14:10:46;;;;;;;2.07;1.97;;;;;;;;;;5046336;28;20442;-86
2021/07/10 14:13:21;;;;;;;2.23;1.90;;;;;;;;;;5046838;28;21081;-85
2021/07/10 14:15:48;;;;;;;2.00;1.80;;;;;;;;;;5061452;28;20422;-86
2021/07/10 14:18:14;;;;;;;2.20;2.00;;;;;;;;;;5062116;28;20453;-84
2021/07/10 14:20:42;;;;;;;1.93;1.80;;;;;;;;;;5046420;28;20441;-83
2021/07/10 14:23:08;;;;;;;1.90;1.60;;;;;;;;;;5046586;28;20944;-85
2021/07/10 14:25:34;;;;;;;1.70;1.60;;;;;;;;;;5047033;28;20625;-85
2021/07/10 14:28:01;;;;;;;3.77;2.20;;;;;;;;;;5046622;28;20403;-85
2021/07/10 14:30:28;;;;;;;1.90;1.80;;;;;;;;;;5061111;28;20479;-85
2021/07/10 14:32:57;;;;;;;3.20;1.97;;;;;;;;;;5062674;28;20871;-84
2021/07/10 14:35:23;;;;;;;1.53;1.43;;;;;;;;;;5017184;28;20412;-85
2021/07/10 14:37:50;;;;;;;3.43;1.30;;;;;;;;;;5040839;28;20468;-84
2021/07/10 14:40:19;;;;;;;1.67;1.53;;;;;;;;;;5045829;28;20402;-86
2021/07/10 14:42:45;;;;;;;1.43;1.33;;;;;;;;;;5028175;28;20411;-84
2021/07/10 14:45:12;;;;;;;2.00;1.50;;;;;;;;;;5045856;28;20920;-84
2021/07/10 14:47:38;;;;;;;1.67;1.57;;;;;;;;;;5062259;28;20391;-84
2021/07/10 14:50:05;;;;;;;1.30;1.20;;;;;;;;;;5061451;28;20422;-84
2021/07/10 14:52:31;;;;;;;1.50;1.40;;;;;;;;;;5060693;28;20889;-86
2021/07/10 14:54:57;;;;;;;1.67;1.57;;;;;;;;;;5061035;28;20468;-84
2021/07/10 14:57:23;;;;;;;1.20;1.10;;;;;;;;;;5045305;28;20410;-84
2021/07/10 14:59:49;;;;;;;2.70;1.80;;;;;;;;;;5061661;28;20508;-85
2021/07/10 15:02:15;;;;;;;1.50;1.30;;;;;;;;;;5017445;28;20419;-85
2021/07/10 15:04:41;;;;;;;2.10;1.47;;;;;;;;;;5016656;28;20421;-86
2021/07/10 15:07:07;;;;;;;2.00;1.80;;;;;;;;;;5046338;28;20440;-83
2021/07/10 15:09:33;;;;;;;2.50;1.73;;;;;;;;;;5045620;28;20454;-85
2021/07/10 15:11:59;;;;;;;1.30;1.20;;;;;;;;;;5060448;28;20453;-85
2021/07/10 15:14:26;;;;;;;1.70;1.50;;;;;;;;;;5059838;28;20460;-84
2021/07/10 15:16:52;;;;;;;2.27;1.57;;;;;;;;;;5016110;28;20429;-83
2021/07/10 15:19:18;;;;;;;1.67;1.57;;;;;;;;;;5036302;28;20430;-85
2021/07/10 15:21:44;;;;;;;2.30;1.30;;;;;;;;;;5044882;28;20432;-85
2021/07/10 15:24:10;;;;;;;1.87;1.47;;;;;;;;;;5060888;28;20424;-84
2021/07/10 15:26:36;;;;;;;3.03;1.20;;;;;;;;;;5060394;28;20946;-84
2021/07/10 15:29:03;;;;;;;1.50;1.07;;;;;;;;;;5019177;28;20782;-84
2021/07/10 15:31:29;;;;;;;1.90;1.37;;;;;;;;;;5018002;28;20438;-85
2021/07/10 15:33:56;;;;;;;1.50;1.40;;;;;;;;;;5060837;28;20472;-85
2021/07/10 15:36:22;;;;;;;1.40;1.10;;;;;;;;;;5060235;28;20441;-84
2021/07/10 15:38:48;;;;;;;1.83;1.20;;;;;;;;;;5061292;28;20419;-84
2021/07/10 15:41:14;;;;;;;1.47;1.37;;;;;;;;;;5059942;28;20418;-85
2021/07/10 15:43:41;;;;;;;2.63;1.60;;;;;;;;;;5022372;28;20511;-84
2021/07/10 15:46:07;;;;;;;1.60;1.50;;;;;;;;;;5025984;28;20447;-83
2021/07/10 15:48:33;;;;;;;2.13;1.67;;;;;;;;;;5045450;28;20452;-86
2021/07/10 15:50:59;;;;;;;1.00;0.90;;;;;;;;;;5060929;28;20441;-84
2021/07/10 15:53:25;;;;;;;3.10;2.27;;;;;;;;;;5022393;28;20204;-85
2021/07/10 15:55:52;;;;;;;1.30;1.20;;;;;;;;;;5020602;28;20598;-85
2021/07/10 15:58:18;;;;;;;1.30;1.20;;;;;;;;;;5016612;28;20430;-84
2021/07/10 16:00:44;;;;;;;1.40;1.30;;;;;;;;;;5059017;28;20195;-85
2021/07/10 16:03:10;;;;;;;1.40;1.30;;;;;;;;;;5059814;28;20183;-86
2021/07/10 16:05:36;;;;;;;1.43;1.33;;;;;;;;;;5060326;28;20180;-85
2021/07/10 16:08:02;;;;;;;1.70;1.60;;;;;;;;;;5019138;28;20859;-83
2021/07/10 16:10:33;;;;;;;2.53;1.50;;;;;;;;;;5013540;28;20852;-83
2021/07/10 16:13:00;;;;;;;1.55;1.40;;;;;;;;;;5059051;28;20176;-84
2021/07/10 16:15:26;;;;;;;2.70;1.70;;;;;;;;;;5043485;28;20184;-84
2021/07/10 16:17:54;;;;;;;1.40;1.30;;;;;;;;;;5045265;28;20534;-84
2021/07/10 16:20:20;;;;;;;1.60;1.48;;;;;;;;;;5022603;28;20183;-84
2021/07/10 16:22:47;;;;;;;1.50;1.40;;;;;;;;;;5019944;28;20237;-84
2021/07/10 16:25:14;;;;;;;1.33;1.20;;;;;;;;;;5015952;28;20173;-83
2021/07/10 16:27:40;;;;;;;2.15;1.70;;;;;;;;;;5055846;28;20211;-82
2021/07/10 16:30:08;;;;;;;2.17;1.50;;;;;;;;;;5056419;28;20184;-82
2021/07/10 16:32:34;;;;;;;2.20;1.48;;;;;;;;;;5059236;28;20473;-85
2021/07/10 16:35:00;;;;;;;2.08;1.90;;;;;;;;;;5043786;28;20215;-83
2021/07/10 16:37:26;;;;;;;1.63;1.52;;;;;;;;;;5026603;28;20266;-86
2021/07/10 16:39:52;;;;;;;1.57;1.40;;;;;;;;;;5059405;28;20714;-84
2021/07/10 16:42:19;;;;;;;1.60;1.50;;;;;;;;;;5059249;28;20398;-84
2021/07/10 16:44:45;;;;;;;2.07;1.30;;;;;;;;;;5057166;28;20248;-84
2021/07/10 16:47:11;;;;;;;1.73;1.63;;;;;;;;;;5025591;28;20487;-84
2021/07/10 16:49:37;;;;;;;2.07;1.10;;;;;;;;;;5021762;28;20423;-84
2021/07/10 16:52:03;;;;;;;1.30;0.80;;;;;;;;;;5043132;28;20446;-82
2021/07/10 16:54:29;;;;;;;0.90;0.90;;;;;;;;;;5043137;28;20411;-82
2021/07/10 16:56:57;;;;;;;1.77;0.93;;;;;;;;;;5059607;28;20420;-84
2021/07/10 16:59:23;;;;;;;1.20;1.10;;;;;;;;;;5042435;28;20419;-82
2021/07/10 17:01:49;;;;;;;1.10;0.90;;;;;;;;;;5019296;28;20444;-83
2021/07/10 17:04:14;;;;;;;0.90;0.80;;;;;;;;;;5010753;28;20411;-83
2021/07/10 17:06:41;;;;;;;1.10;1.00;;;;;;;;;;5044269;28;20440;-83
2021/07/10 17:09:07;;;;;;;1.00;0.80;;;;;;;;;;5058835;28;20470;-83
2021/07/10 17:11:35;;;;;;;1.43;1.10;;;;;;;;;;5021051;28;20466;-83
2021/07/10 17:14:01;;;;;;;0.83;0.80;;;;;;;;;;5042369;28;20436;-84
2021/07/10 17:16:27;;;;;;;1.60;1.37;;;;;;;;;;5043029;28;20436;-84
2021/07/10 17:18:54;;;;;;;2.30;1.27;;;;;;;;;;5043720;28;20498;-83
2021/07/10 17:21:20;;;;;;;0.80;0.80;;;;;;;;;;5009264;28;20420;-83
2021/07/10 17:23:46;;;;;;;1.45;1.05;;;;;;;;;;5058645;28;20184;-83
2021/07/10 17:26:12;;;;;;;1.53;1.20;;;;;;;;;;5016083;28;20213;-82
2021/07/10 17:28:38;;;;;;;2.08;1.17;;;;;;;;;;5013311;28;20448;-83
2021/07/10 17:31:12;;;;;;;1.20;1.00;;;;;;;;;;5030843;28;20213;-84
2021/07/10 17:33:38;;;;;;;1.10;1.00;;;;;;;;;;5042520;28;20404;-83
2021/07/10 17:36:04;;;;;;;1.77;1.67;;;;;;;;;;5058889;28;20295;-80
2021/07/10 17:38:30;;;;;;;1.38;1.27;;;;;;;;;;5058379;28;20190;-82
2021/07/10 17:40:56;;;;;;;1.10;1.00;;;;;;;;;;5018247;28;20179;-84